sensor_id;sensor_type;location;lat;lon;timestamp;P1;durP1;ratioP1;P2;durP2;ratioP2
37221;SDS011;23119;51.842;-2.230;2023-07-20T00:02:24;4.10;;;0.40;;
37221;SDS011;23119;51.842;-2.230;2023-07-20T00:04:50;1.38;;;0.30;;
37221;SDS011;23119;51.842;-2.230;2023-07-20T00:07:22;1.63;;;0.40;;
37221;SDS011;23119;51.842;-2.230;2023-07-20T00:09:50;1.52;;;0.40;;
37221;SDS011;23119;51.842;-2.230;2023-07-20T00:12:15;1.00;;;0.30;;
37221;SDS011;23119;51.842;-2.230;2023-07-20T00:14:41;1.83;;;0.47;;
37221;SDS011;23119;51.842;-2.230;2023-07-20T00:17:11;1.02;;;0.50;;
37221;SDS011;23119;51.842;-2.230;2023-07-20T00:19:36;0.90;;;0.40;;
37221;SDS011;23119;51.842;-2.230;2023-07-20T00:22:02;1.30;;;0.43;;
37221;SDS011;23119;51.842;-2.230;2023-07-20T00:24:30;0.90;;;0.38;;
37221;SDS011;23119;51.842;-2.230;2023-07-20T00:26:57;1.30;;;0.40;;
37221;SDS011;23119;51.842;-2.230;2023-07-20T00:29:23;1.00;;;0.40;;
37221;SDS011;23119;51.842;-2.230;2023-07-20T00:31:57;1.02;;;0.30;;
37221;SDS011;23119;51.842;-2.230;2023-07-20T00:34:24;2.30;;;0.45;;
37221;SDS011;23119;51.842;-2.230;2023-07-20T00:36:50;0.90;;;0.40;;
37221;SDS011;23119;51.842;-2.230;2023-07-20T00:39:16;0.77;;;0.40;;
37221;SDS011;23119;51.842;-2.230;2023-07-20T00:41:42;1.55;;;0.40;;
37221;SDS011;23119;51.842;-2.230;2023-07-20T00:44:08;3.25;;;0.50;;
37221;SDS011;23119;51.842;-2.230;2023-07-20T00:46:34;1.02;;;0.40;;
37221;SDS011;23119;51.842;-2.230;2023-07-20T00:49:00;2.33;;;0.50;;
37221;SDS011;23119;51.842;-2.230;2023-07-20T00:51:28;0.88;;;0.40;;
37221;SDS011;23119;51.842;-2.230;2023-07-20T00:53:57;2.00;;;0.40;;
37221;SDS011;23119;51.842;-2.230;2023-07-20T00:56:23;1.50;;;0.40;;
37221;SDS011;23119;51.842;-2.230;2023-07-20T00:58:49;2.05;;;0.45;;
37221;SDS011;23119;51.842;-2.230;2023-07-20T01:01:16;1.52;;;0.50;;
37221;SDS011;23119;51.842;-2.230;2023-07-20T01:03:42;4.18;;;0.50;;
37221;SDS011;23119;51.842;-2.230;2023-07-20T01:14:22;2.83;;;0.60;;
37221;SDS011;23119;51.842;-2.230;2023-07-20T01:16:49;1.00;;;0.50;;
37221;SDS011;23119;51.842;-2.230;2023-07-20T01:19:17;1.98;;;0.40;;
37221;SDS011;23119;51.842;-2.230;2023-07-20T01:33:02;1.98;;;0.43;;
37221;SDS011;23119;51.842;-2.230;2023-07-20T01:35:29;1.17;;;0.43;;
37221;SDS011;23119;51.842;-2.230;2023-07-20T01:37:59;2.10;;;0.50;;
37221;SDS011;23119;51.842;-2.230;2023-07-20T01:40:30;2.25;;;0.70;;
37221;SDS011;23119;51.842;-2.230;2023-07-20T01:42:56;2.50;;;0.70;;
37221;SDS011;23119;51.842;-2.230;2023-07-20T01:45:22;2.40;;;0.60;;
37221;SDS011;23119;51.842;-2.230;2023-07-20T01:47:48;3.38;;;0.80;;
37221;SDS011;23119;51.842;-2.230;2023-07-20T01:50:14;2.78;;;0.75;;
37221;SDS011;23119;51.842;-2.230;2023-07-20T01:52:39;2.38;;;0.82;;
37221;SDS011;23119;51.842;-2.230;2023-07-20T01:55:05;3.40;;;0.93;;
37221;SDS011;23119;51.842;-2.230;2023-07-20T01:57:31;3.10;;;0.73;;
37221;SDS011;23119;51.842;-2.230;2023-07-20T02:00:00;2.88;;;1.10;;
37221;SDS011;23119;51.842;-2.230;2023-07-20T02:02:26;5.93;;;1.20;;
37221;SDS011;23119;51.842;-2.230;2023-07-20T02:04:55;4.35;;;0.85;;
37221;SDS011;23119;51.842;-2.230;2023-07-20T02:07:21;4.60;;;1.00;;
37221;SDS011;23119;51.842;-2.230;2023-07-20T02:09:47;4.65;;;1.08;;
37221;SDS011;23119;51.842;-2.230;2023-07-20T02:12:13;3.97;;;1.00;;
37221;SDS011;23119;51.842;-2.230;2023-07-20T02:14:39;2.90;;;0.80;;
37221;SDS011;23119;51.842;-2.230;2023-07-20T02:17:07;4.50;;;1.02;;
37221;SDS011;23119;51.842;-2.230;2023-07-20T02:19:35;3.42;;;1.30;;
37221;SDS011;23119;51.842;-2.230;2023-07-20T02:22:04;4.13;;;0.80;;
37221;SDS011;23119;51.842;-2.230;2023-07-20T02:24:31;3.10;;;1.02;;
37221;SDS011;23119;51.842;-2.230;2023-07-20T02:27:15;2.53;;;1.00;;
37221;SDS011;23119;51.842;-2.230;2023-07-20T02:29:46;2.20;;;1.00;;
37221;SDS011;23119;51.842;-2.230;2023-07-20T02:32:16;2.65;;;0.90;;
37221;SDS011;23119;51.842;-2.230;2023-07-20T02:34:42;3.30;;;1.35;;
37221;SDS011;23119;51.842;-2.230;2023-07-20T02:37:08;2.60;;;0.98;;
37221;SDS011;23119;51.842;-2.230;2023-07-20T02:39:38;1.77;;;0.90;;
37221;SDS011;23119;51.842;-2.230;2023-07-20T02:42:09;4.13;;;0.90;;
37221;SDS011;23119;51.842;-2.230;2023-07-20T02:44:39;2.88;;;0.82;;
37221;SDS011;23119;51.842;-2.230;2023-07-20T02:47:05;2.42;;;0.90;;
37221;SDS011;23119;51.842;-2.230;2023-07-20T02:49:34;1.27;;;0.65;;
37221;SDS011;23119;51.842;-2.230;2023-07-20T02:52:02;1.83;;;0.90;;
37221;SDS011;23119;51.842;-2.230;2023-07-20T02:54:31;2.85;;;0.75;;
37221;SDS011;23119;51.842;-2.230;2023-07-20T02:56:56;1.42;;;0.57;;
37221;SDS011;23119;51.842;-2.230;2023-07-20T02:59:22;2.22;;;0.70;;
37221;SDS011;23119;51.842;-2.230;2023-07-20T03:01:48;1.00;;;0.52;;
37221;SDS011;23119;51.842;-2.230;2023-07-20T03:04:14;2.28;;;0.70;;
37221;SDS011;23119;51.842;-2.230;2023-07-20T03:06:39;2.13;;;0.63;;
37221;SDS011;23119;51.842;-2.230;2023-07-20T03:09:05;1.38;;;0.60;;
37221;SDS011;23119;51.842;-2.230;2023-07-20T03:11:32;5.00;;;1.80;;
37221;SDS011;23119;51.842;-2.230;2023-07-20T03:13:58;1.20;;;0.60;;
37221;SDS011;23119;51.842;-2.230;2023-07-20T03:16:24;2.05;;;0.60;;
37221;SDS011;23119;51.842;-2.230;2023-07-20T03:18:50;1.33;;;0.70;;
37221;SDS011;23119;51.842;-2.230;2023-07-20T03:21:18;1.90;;;0.68;;
37221;SDS011;23119;51.842;-2.230;2023-07-20T03:23:44;2.92;;;0.73;;
37221;SDS011;23119;51.842;-2.230;2023-07-20T03:26:12;1.88;;;0.70;;
37221;SDS011;23119;51.842;-2.230;2023-07-20T03:28:38;1.67;;;0.60;;
37221;SDS011;23119;51.842;-2.230;2023-07-20T03:31:04;2.20;;;0.70;;
37221;SDS011;23119;51.842;-2.230;2023-07-20T03:33:30;1.75;;;0.68;;
37221;SDS011;23119;51.842;-2.230;2023-07-20T03:35:57;2.58;;;0.85;;
37221;SDS011;23119;51.842;-2.230;2023-07-20T03:38:25;2.60;;;0.70;;
37221;SDS011;23119;51.842;-2.230;2023-07-20T03:40:56;3.08;;;0.80;;
37221;SDS011;23119;51.842;-2.230;2023-07-20T03:43:26;4.95;;;0.77;;
37221;SDS011;23119;51.842;-2.230;2023-07-20T03:45:53;1.48;;;0.60;;
37221;SDS011;23119;51.842;-2.230;2023-07-20T03:48:22;1.35;;;0.65;;
37221;SDS011;23119;51.842;-2.230;2023-07-20T03:50:49;1.23;;;0.60;;
37221;SDS011;23119;51.842;-2.230;2023-07-20T03:53:16;1.40;;;0.60;;
37221;SDS011;23119;51.842;-2.230;2023-07-20T03:55:49;1.58;;;0.80;;
37221;SDS011;23119;51.842;-2.230;2023-07-20T03:58:18;4.15;;;0.95;;
37221;SDS011;23119;51.842;-2.230;2023-07-20T04:00:47;4.25;;;1.05;;
37221;SDS011;23119;51.842;-2.230;2023-07-20T04:03:15;3.45;;;1.05;;
37221;SDS011;23119;51.842;-2.230;2023-07-20T04:05:46;2.38;;;1.48;;
37221;SDS011;23119;51.842;-2.230;2023-07-20T04:08:12;2.55;;;0.98;;
37221;SDS011;23119;51.842;-2.230;2023-07-20T04:10:43;2.95;;;0.70;;
37221;SDS011;23119;51.842;-2.230;2023-07-20T04:13:09;4.93;;;0.90;;
37221;SDS011;23119;51.842;-2.230;2023-07-20T04:15:41;3.40;;;1.05;;
37221;SDS011;23119;51.842;-2.230;2023-07-20T04:18:10;5.80;;;1.23;;
37221;SDS011;23119;51.842;-2.230;2023-07-20T04:20:37;2.17;;;0.90;;
37221;SDS011;23119;51.842;-2.230;2023-07-20T04:23:03;3.50;;;0.93;;
37221;SDS011;23119;51.842;-2.230;2023-07-20T04:25:29;2.70;;;0.95;;
37221;SDS011;23119;51.842;-2.230;2023-07-20T04:28:04;5.43;;;1.42;;
37221;SDS011;23119;51.842;-2.230;2023-07-20T04:30:39;2.55;;;0.90;;
37221;SDS011;23119;51.842;-2.230;2023-07-20T04:33:05;6.07;;;1.00;;
37221;SDS011;23119;51.842;-2.230;2023-07-20T04:38:20;2.97;;;1.00;;
37221;SDS011;23119;51.842;-2.230;2023-07-20T04:40:47;3.38;;;0.95;;
37221;SDS011;23119;51.842;-2.230;2023-07-20T04:43:14;2.28;;;0.80;;
37221;SDS011;23119;51.842;-2.230;2023-07-20T04:45:43;4.50;;;0.90;;
37221;SDS011;23119;51.842;-2.230;2023-07-20T04:48:12;1.83;;;0.60;;
37221;SDS011;23119;51.842;-2.230;2023-07-20T04:50:45;4.53;;;0.60;;
37221;SDS011;23119;51.842;-2.230;2023-07-20T04:53:13;1.43;;;0.50;;
37221;SDS011;23119;51.842;-2.230;2023-07-20T04:55:39;2.30;;;0.50;;
37221;SDS011;23119;51.842;-2.230;2023-07-20T04:58:05;2.63;;;0.50;;
37221;SDS011;23119;51.842;-2.230;2023-07-20T05:00:34;3.90;;;0.60;;
37221;SDS011;23119;51.842;-2.230;2023-07-20T05:03:06;1.90;;;0.50;;
37221;SDS011;23119;51.842;-2.230;2023-07-20T05:05:34;1.90;;;0.40;;
37221;SDS011;23119;51.842;-2.230;2023-07-20T05:08:03;1.88;;;0.40;;
37221;SDS011;23119;51.842;-2.230;2023-07-20T05:10:31;3.15;;;0.50;;
37221;SDS011;23119;51.842;-2.230;2023-07-20T05:13:02;2.80;;;0.65;;
37221;SDS011;23119;51.842;-2.230;2023-07-20T05:15:28;4.40;;;0.50;;
37221;SDS011;23119;51.842;-2.230;2023-07-20T05:17:54;1.90;;;0.45;;
37221;SDS011;23119;51.842;-2.230;2023-07-20T05:20:20;2.58;;;0.50;;
37221;SDS011;23119;51.842;-2.230;2023-07-20T05:22:48;6.70;;;1.08;;
37221;SDS011;23119;51.842;-2.230;2023-07-20T05:25:14;3.38;;;0.60;;
37221;SDS011;23119;51.842;-2.230;2023-07-20T05:27:45;1.33;;;0.45;;
37221;SDS011;23119;51.842;-2.230;2023-07-20T05:30:14;2.47;;;0.50;;
37221;SDS011;23119;51.842;-2.230;2023-07-20T05:32:39;1.50;;;0.60;;
37221;SDS011;23119;51.842;-2.230;2023-07-20T05:35:07;3.50;;;0.63;;
37221;SDS011;23119;51.842;-2.230;2023-07-20T05:37:36;3.83;;;0.68;;
37221;SDS011;23119;51.842;-2.230;2023-07-20T05:40:03;4.22;;;0.77;;
37221;SDS011;23119;51.842;-2.230;2023-07-20T05:42:31;1.75;;;0.68;;
37221;SDS011;23119;51.842;-2.230;2023-07-20T05:44:59;3.22;;;0.75;;
37221;SDS011;23119;51.842;-2.230;2023-07-20T05:47:27;3.55;;;0.80;;
37221;SDS011;23119;51.842;-2.230;2023-07-20T05:49:56;2.20;;;0.80;;
37221;SDS011;23119;51.842;-2.230;2023-07-20T05:52:21;2.42;;;0.95;;
37221;SDS011;23119;51.842;-2.230;2023-07-20T05:54:50;4.35;;;0.80;;
37221;SDS011;23119;51.842;-2.230;2023-07-20T05:57:15;2.88;;;0.80;;
37221;SDS011;23119;51.842;-2.230;2023-07-20T05:59:44;3.03;;;1.00;;
37221;SDS011;23119;51.842;-2.230;2023-07-20T06:02:12;2.40;;;0.80;;
37221;SDS011;23119;51.842;-2.230;2023-07-20T06:04:43;2.38;;;0.90;;
37221;SDS011;23119;51.842;-2.230;2023-07-20T06:07:11;2.17;;;0.98;;
37221;SDS011;23119;51.842;-2.230;2023-07-20T06:09:40;3.08;;;0.75;;
37221;SDS011;23119;51.842;-2.230;2023-07-20T06:12:06;2.45;;;0.77;;
37221;SDS011;23119;51.842;-2.230;2023-07-20T06:14:37;2.33;;;1.00;;
37221;SDS011;23119;51.842;-2.230;2023-07-20T06:17:05;3.33;;;0.80;;
37221;SDS011;23119;51.842;-2.230;2023-07-20T06:19:31;2.13;;;1.25;;
37221;SDS011;23119;51.842;-2.230;2023-07-20T06:21:59;2.80;;;1.27;;
37221;SDS011;23119;51.842;-2.230;2023-07-20T06:24:27;1.95;;;1.20;;
37221;SDS011;23119;51.842;-2.230;2023-07-20T06:26:53;3.13;;;1.80;;
37221;SDS011;23119;51.842;-2.230;2023-07-20T06:29:19;4.28;;;2.22;;
37221;SDS011;23119;51.842;-2.230;2023-07-20T06:31:44;3.10;;;2.25;;
37221;SDS011;23119;51.842;-2.230;2023-07-20T06:34:14;3.90;;;1.52;;
37221;SDS011;23119;51.842;-2.230;2023-07-20T06:36:45;3.58;;;1.35;;
37221;SDS011;23119;51.842;-2.230;2023-07-20T06:39:15;1.60;;;0.70;;
37221;SDS011;23119;51.842;-2.230;2023-07-20T06:41:40;1.48;;;0.50;;
37221;SDS011;23119;51.842;-2.230;2023-07-20T06:44:06;2.53;;;0.40;;
37221;SDS011;23119;51.842;-2.230;2023-07-20T06:46:38;1.13;;;0.40;;
37221;SDS011;23119;51.842;-2.230;2023-07-20T06:49:10;1.52;;;0.55;;
37221;SDS011;23119;51.842;-2.230;2023-07-20T06:51:56;2.00;;;0.70;;
37221;SDS011;23119;51.842;-2.230;2023-07-20T06:54:24;2.35;;;0.70;;
37221;SDS011;23119;51.842;-2.230;2023-07-20T06:56:57;2.38;;;0.68;;
37221;SDS011;23119;51.842;-2.230;2023-07-20T06:59:23;2.97;;;1.23;;
37221;SDS011;23119;51.842;-2.230;2023-07-20T07:04:27;1.77;;;0.50;;
37221;SDS011;23119;51.842;-2.230;2023-07-20T07:06:53;1.98;;;0.68;;
37221;SDS011;23119;51.842;-2.230;2023-07-20T07:09:19;1.63;;;0.70;;
37221;SDS011;23119;51.842;-2.230;2023-07-20T07:11:46;1.15;;;0.50;;
37221;SDS011;23119;51.842;-2.230;2023-07-20T07:14:15;2.58;;;0.60;;
37221;SDS011;23119;51.842;-2.230;2023-07-20T07:16:42;2.22;;;0.70;;
37221;SDS011;23119;51.842;-2.230;2023-07-20T07:19:07;3.10;;;0.43;;
37221;SDS011;23119;51.842;-2.230;2023-07-20T07:21:33;1.15;;;0.60;;
37221;SDS011;23119;51.842;-2.230;2023-07-20T07:23:59;1.73;;;0.80;;
37221;SDS011;23119;51.842;-2.230;2023-07-20T07:26:25;1.70;;;0.50;;
37221;SDS011;23119;51.842;-2.230;2023-07-20T07:28:51;1.00;;;0.55;;
37221;SDS011;23119;51.842;-2.230;2023-07-20T07:31:16;2.50;;;0.50;;
37221;SDS011;23119;51.842;-2.230;2023-07-20T07:33:42;4.32;;;0.75;;
37221;SDS011;23119;51.842;-2.230;2023-07-20T07:36:08;2.17;;;0.50;;
37221;SDS011;23119;51.842;-2.230;2023-07-20T07:38:34;4.53;;;0.50;;
37221;SDS011;23119;51.842;-2.230;2023-07-20T07:40:59;1.85;;;0.70;;
37221;SDS011;23119;51.842;-2.230;2023-07-20T07:43:25;1.90;;;0.60;;
37221;SDS011;23119;51.842;-2.230;2023-07-20T07:45:53;1.60;;;0.70;;
37221;SDS011;23119;51.842;-2.230;2023-07-20T07:48:19;1.65;;;0.60;;
37221;SDS011;23119;51.842;-2.230;2023-07-20T07:50:46;2.63;;;0.50;;
37221;SDS011;23119;51.842;-2.230;2023-07-20T07:53:12;2.05;;;0.60;;
37221;SDS011;23119;51.842;-2.230;2023-07-20T07:55:38;2.25;;;0.43;;
37221;SDS011;23119;51.842;-2.230;2023-07-20T07:58:04;1.55;;;0.50;;
37221;SDS011;23119;51.842;-2.230;2023-07-20T08:00:29;4.05;;;0.60;;
37221;SDS011;23119;51.842;-2.230;2023-07-20T08:02:55;1.58;;;0.40;;
37221;SDS011;23119;51.842;-2.230;2023-07-20T08:05:21;2.13;;;0.40;;
37221;SDS011;23119;51.842;-2.230;2023-07-20T08:07:47;2.15;;;0.40;;
37221;SDS011;23119;51.842;-2.230;2023-07-20T08:10:13;0.60;;;0.40;;
37221;SDS011;23119;51.842;-2.230;2023-07-20T08:12:39;1.50;;;0.50;;
37221;SDS011;23119;51.842;-2.230;2023-07-20T08:15:05;1.48;;;0.40;;
37221;SDS011;23119;51.842;-2.230;2023-07-20T08:17:31;0.95;;;0.40;;
37221;SDS011;23119;51.842;-2.230;2023-07-20T08:19:57;2.60;;;0.50;;
37221;SDS011;23119;51.842;-2.230;2023-07-20T08:22:35;2.83;;;0.40;;
37221;SDS011;23119;51.842;-2.230;2023-07-20T08:25:01;1.33;;;0.30;;
37221;SDS011;23119;51.842;-2.230;2023-07-20T08:27:26;1.17;;;0.40;;
37221;SDS011;23119;51.842;-2.230;2023-07-20T08:29:54;2.42;;;0.30;;
37221;SDS011;23119;51.842;-2.230;2023-07-20T08:32:23;2.50;;;0.40;;
37221;SDS011;23119;51.842;-2.230;2023-07-20T08:34:48;3.15;;;0.50;;
37221;SDS011;23119;51.842;-2.230;2023-07-20T08:37:14;1.65;;;0.40;;
37221;SDS011;23119;51.842;-2.230;2023-07-20T08:39:40;2.42;;;0.30;;
37221;SDS011;23119;51.842;-2.230;2023-07-20T08:42:08;2.88;;;0.40;;
37221;SDS011;23119;51.842;-2.230;2023-07-20T08:44:39;1.77;;;0.30;;
37221;SDS011;23119;51.842;-2.230;2023-07-20T08:47:05;0.98;;;0.40;;
37221;SDS011;23119;51.842;-2.230;2023-07-20T08:49:32;2.35;;;0.30;;
37221;SDS011;23119;51.842;-2.230;2023-07-20T08:52:01;0.95;;;0.25;;
37221;SDS011;23119;51.842;-2.230;2023-07-20T08:54:29;2.95;;;0.30;;
37221;SDS011;23119;51.842;-2.230;2023-07-20T08:57:02;1.10;;;0.30;;
37221;SDS011;23119;51.842;-2.230;2023-07-20T08:59:32;0.88;;;0.30;;
37221;SDS011;23119;51.842;-2.230;2023-07-20T09:02:04;1.08;;;0.40;;
37221;SDS011;23119;51.842;-2.230;2023-07-20T09:04:30;1.58;;;0.40;;
37221;SDS011;23119;51.842;-2.230;2023-07-20T09:06:56;1.80;;;0.30;;
37221;SDS011;23119;51.842;-2.230;2023-07-20T09:09:22;1.35;;;0.50;;
37221;SDS011;23119;51.842;-2.230;2023-07-20T09:11:49;0.40;;;0.20;;
37221;SDS011;23119;51.842;-2.230;2023-07-20T09:14:23;1.45;;;0.30;;
37221;SDS011;23119;51.842;-2.230;2023-07-20T09:16:50;1.08;;;0.20;;
37221;SDS011;23119;51.842;-2.230;2023-07-20T09:19:20;2.35;;;0.30;;
37221;SDS011;23119;51.842;-2.230;2023-07-20T09:21:49;1.55;;;0.30;;
37221;SDS011;23119;51.842;-2.230;2023-07-20T09:24:18;0.75;;;0.20;;
37221;SDS011;23119;51.842;-2.230;2023-07-20T09:26:48;0.82;;;0.20;;
37221;SDS011;23119;51.842;-2.230;2023-07-20T09:29:17;1.38;;;0.40;;
37221;SDS011;23119;51.842;-2.230;2023-07-20T09:31:43;0.82;;;0.30;;
37221;SDS011;23119;51.842;-2.230;2023-07-20T09:34:29;1.02;;;0.22;;
37221;SDS011;23119;51.842;-2.230;2023-07-20T09:37:01;1.73;;;0.52;;
37221;SDS011;23119;51.842;-2.230;2023-07-20T09:39:27;1.35;;;0.30;;
37221;SDS011;23119;51.842;-2.230;2023-07-20T09:42:00;0.43;;;0.20;;
37221;SDS011;23119;51.842;-2.230;2023-07-20T09:44:30;0.50;;;0.28;;
37221;SDS011;23119;51.842;-2.230;2023-07-20T09:46:55;1.67;;;0.28;;
37221;SDS011;23119;51.842;-2.230;2023-07-20T09:49:21;0.50;;;0.22;;
37221;SDS011;23119;51.842;-2.230;2023-07-20T09:51:50;0.90;;;0.30;;
37221;SDS011;23119;51.842;-2.230;2023-07-20T09:54:16;0.88;;;0.30;;
37221;SDS011;23119;51.842;-2.230;2023-07-20T09:56:52;0.80;;;0.30;;
37221;SDS011;23119;51.842;-2.230;2023-07-20T09:59:24;2.83;;;0.40;;
37221;SDS011;23119;51.842;-2.230;2023-07-20T10:04:47;1.20;;;0.30;;
37221;SDS011;23119;51.842;-2.230;2023-07-20T10:07:17;0.93;;;0.30;;
37221;SDS011;23119;51.842;-2.230;2023-07-20T10:09:50;2.47;;;0.20;;
37221;SDS011;23119;51.842;-2.230;2023-07-20T10:12:18;0.98;;;0.30;;
37221;SDS011;23119;51.842;-2.230;2023-07-20T10:14:50;1.05;;;0.20;;
37221;SDS011;23119;51.842;-2.230;2023-07-20T10:17:40;1.75;;;0.40;;
37221;SDS011;23119;51.842;-2.230;2023-07-20T10:20:36;0.57;;;0.28;;
37221;SDS011;23119;51.842;-2.230;2023-07-20T10:23:07;1.80;;;0.30;;
37221;SDS011;23119;51.842;-2.230;2023-07-20T10:25:34;1.00;;;0.30;;
37221;SDS011;23119;51.842;-2.230;2023-07-20T10:28:04;1.15;;;0.20;;
37221;SDS011;23119;51.842;-2.230;2023-07-20T10:30:31;1.40;;;0.60;;
37221;SDS011;23119;51.842;-2.230;2023-07-20T10:33:04;0.98;;;0.30;;
37221;SDS011;23119;51.842;-2.230;2023-07-20T10:38:16;0.63;;;0.30;;
37221;SDS011;23119;51.842;-2.230;2023-07-20T10:40:42;0.70;;;0.30;;
37221;SDS011;23119;51.842;-2.230;2023-07-20T10:43:08;1.15;;;0.40;;
37221;SDS011;23119;51.842;-2.230;2023-07-20T10:48:19;0.55;;;0.30;;
37221;SDS011;23119;51.842;-2.230;2023-07-20T10:53:41;1.45;;;0.30;;
37221;SDS011;23119;51.842;-2.230;2023-07-20T10:56:13;2.72;;;0.20;;
37221;SDS011;23119;51.842;-2.230;2023-07-20T10:58:40;3.17;;;0.30;;
37221;SDS011;23119;51.842;-2.230;2023-07-20T11:01:07;0.88;;;0.47;;
37221;SDS011;23119;51.842;-2.230;2023-07-20T11:03:36;0.60;;;0.40;;
37221;SDS011;23119;51.842;-2.230;2023-07-20T11:09:11;1.88;;;0.47;;
37221;SDS011;23119;51.842;-2.230;2023-07-20T11:11:41;0.75;;;0.30;;
37221;SDS011;23119;51.842;-2.230;2023-07-20T11:14:09;1.23;;;0.40;;
37221;SDS011;23119;51.842;-2.230;2023-07-20T11:16:45;1.50;;;0.32;;
37221;SDS011;23119;51.842;-2.230;2023-07-20T11:21:46;1.63;;;0.75;;
37221;SDS011;23119;51.842;-2.230;2023-07-20T11:24:19;0.82;;;0.28;;
37221;SDS011;23119;51.842;-2.230;2023-07-20T11:26:46;1.15;;;0.40;;
37221;SDS011;23119;51.842;-2.230;2023-07-20T11:29:18;1.13;;;0.47;;
37221;SDS011;23119;51.842;-2.230;2023-07-20T11:31:55;0.60;;;0.30;;
37221;SDS011;23119;51.842;-2.230;2023-07-20T11:34:21;3.35;;;0.40;;
37221;SDS011;23119;51.842;-2.230;2023-07-20T11:36:47;1.02;;;0.20;;
37221;SDS011;23119;51.842;-2.230;2023-07-20T11:39:18;0.90;;;0.30;;
37221;SDS011;23119;51.842;-2.230;2023-07-20T11:41:53;0.90;;;0.30;;
37221;SDS011;23119;51.842;-2.230;2023-07-20T11:44:21;0.60;;;0.20;;
37221;SDS011;23119;51.842;-2.230;2023-07-20T11:47:03;0.50;;;0.30;;
37221;SDS011;23119;51.842;-2.230;2023-07-20T11:49:52;1.38;;;0.30;;
37221;SDS011;23119;51.842;-2.230;2023-07-20T11:52:27;1.20;;;0.30;;
37221;SDS011;23119;51.842;-2.230;2023-07-20T11:54:53;1.30;;;0.30;;
37221;SDS011;23119;51.842;-2.230;2023-07-20T11:57:19;0.55;;;0.30;;
37221;SDS011;23119;51.842;-2.230;2023-07-20T12:00:00;0.50;;;0.20;;
37221;SDS011;23119;51.842;-2.230;2023-07-20T12:02:30;1.05;;;0.32;;
37221;SDS011;23119;51.842;-2.230;2023-07-20T12:05:01;0.65;;;0.30;;
37221;SDS011;23119;51.842;-2.230;2023-07-20T12:07:35;1.90;;;0.50;;
37221;SDS011;23119;51.842;-2.230;2023-07-20T12:10:05;1.95;;;0.30;;
37221;SDS011;23119;51.842;-2.230;2023-07-20T12:12:38;1.30;;;0.50;;
37221;SDS011;23119;51.842;-2.230;2023-07-20T12:17:44;5.32;;;0.40;;
37221;SDS011;23119;51.842;-2.230;2023-07-20T12:20:12;1.33;;;0.40;;
37221;SDS011;23119;51.842;-2.230;2023-07-20T12:22:43;3.58;;;0.50;;
37221;SDS011;23119;51.842;-2.230;2023-07-20T12:25:09;1.33;;;0.55;;
37221;SDS011;23119;51.842;-2.230;2023-07-20T12:27:36;0.80;;;0.40;;
37221;SDS011;23119;51.842;-2.230;2023-07-20T12:30:05;0.93;;;0.50;;
37221;SDS011;23119;51.842;-2.230;2023-07-20T12:32:31;2.30;;;0.38;;
37221;SDS011;23119;51.842;-2.230;2023-07-20T12:35:10;1.00;;;0.40;;
37221;SDS011;23119;51.842;-2.230;2023-07-20T12:37:36;0.88;;;0.45;;
37221;SDS011;23119;51.842;-2.230;2023-07-20T12:40:02;1.50;;;0.60;;
37221;SDS011;23119;51.842;-2.230;2023-07-20T12:42:31;3.22;;;0.70;;
37221;SDS011;23119;51.842;-2.230;2023-07-20T12:44:59;1.33;;;0.50;;
37221;SDS011;23119;51.842;-2.230;2023-07-20T12:47:25;1.48;;;0.50;;
37221;SDS011;23119;51.842;-2.230;2023-07-20T12:49:50;1.50;;;0.40;;
37221;SDS011;23119;51.842;-2.230;2023-07-20T12:52:16;1.55;;;0.50;;
37221;SDS011;23119;51.842;-2.230;2023-07-20T12:54:42;0.90;;;0.40;;
37221;SDS011;23119;51.842;-2.230;2023-07-20T12:57:10;2.38;;;0.40;;
37221;SDS011;23119;51.842;-2.230;2023-07-20T12:59:37;0.90;;;0.50;;
37221;SDS011;23119;51.842;-2.230;2023-07-20T13:02:05;1.20;;;0.45;;
37221;SDS011;23119;51.842;-2.230;2023-07-20T13:04:35;0.93;;;0.30;;
37221;SDS011;23119;51.842;-2.230;2023-07-20T13:07:01;2.00;;;0.30;;
37221;SDS011;23119;51.842;-2.230;2023-07-20T13:09:27;1.17;;;0.30;;
37221;SDS011;23119;51.842;-2.230;2023-07-20T13:11:53;1.50;;;0.40;;
37221;SDS011;23119;51.842;-2.230;2023-07-20T13:14:18;1.17;;;0.30;;
37221;SDS011;23119;51.842;-2.230;2023-07-20T13:16:44;0.50;;;0.30;;
37221;SDS011;23119;51.842;-2.230;2023-07-20T13:19:10;0.50;;;0.20;;
37221;SDS011;23119;51.842;-2.230;2023-07-20T13:21:35;0.55;;;0.20;;
37221;SDS011;23119;51.842;-2.230;2023-07-20T13:24:01;2.10;;;0.30;;
37221;SDS011;23119;51.842;-2.230;2023-07-20T13:26:29;1.55;;;0.50;;
37221;SDS011;23119;51.842;-2.230;2023-07-20T13:28:57;1.02;;;0.30;;
37221;SDS011;23119;51.842;-2.230;2023-07-20T13:31:25;0.80;;;0.45;;
37221;SDS011;23119;51.842;-2.230;2023-07-20T13:33:51;0.73;;;0.30;;
37221;SDS011;23119;51.842;-2.230;2023-07-20T13:36:21;1.45;;;0.65;;
37221;SDS011;23119;51.842;-2.230;2023-07-20T13:38:50;0.63;;;0.20;;
37221;SDS011;23119;51.842;-2.230;2023-07-20T13:41:16;0.90;;;0.30;;
37221;SDS011;23119;51.842;-2.230;2023-07-20T13:43:42;1.25;;;0.40;;
37221;SDS011;23119;51.842;-2.230;2023-07-20T13:46:08;2.38;;;0.40;;
37221;SDS011;23119;51.842;-2.230;2023-07-20T13:48:35;0.40;;;0.20;;
37221;SDS011;23119;51.842;-2.230;2023-07-20T13:51:01;0.55;;;0.22;;
37221;SDS011;23119;51.842;-2.230;2023-07-20T13:53:27;0.68;;;0.30;;
37221;SDS011;23119;51.842;-2.230;2023-07-20T13:55:58;0.50;;;0.30;;
37221;SDS011;23119;51.842;-2.230;2023-07-20T13:58:24;0.75;;;0.30;;
37221;SDS011;23119;51.842;-2.230;2023-07-20T14:00:50;0.90;;;0.20;;
37221;SDS011;23119;51.842;-2.230;2023-07-20T14:03:18;0.63;;;0.20;;
37221;SDS011;23119;51.842;-2.230;2023-07-20T14:05:47;0.60;;;0.20;;
37221;SDS011;23119;51.842;-2.230;2023-07-20T14:08:16;0.70;;;0.20;;
37221;SDS011;23119;51.842;-2.230;2023-07-20T14:10:42;1.25;;;0.38;;
37221;SDS011;23119;51.842;-2.230;2023-07-20T14:13:07;1.45;;;0.30;;
37221;SDS011;23119;51.842;-2.230;2023-07-20T14:15:35;1.50;;;0.40;;
37221;SDS011;23119;51.842;-2.230;2023-07-20T14:18:01;0.70;;;0.30;;
37221;SDS011;23119;51.842;-2.230;2023-07-20T14:20:27;0.80;;;0.40;;
37221;SDS011;23119;51.842;-2.230;2023-07-20T14:22:53;1.73;;;0.50;;
37221;SDS011;23119;51.842;-2.230;2023-07-20T14:25:21;0.88;;;0.30;;
37221;SDS011;23119;51.842;-2.230;2023-07-20T14:27:49;0.70;;;0.40;;
37221;SDS011;23119;51.842;-2.230;2023-07-20T14:30:15;2.15;;;0.50;;
37221;SDS011;23119;51.842;-2.230;2023-07-20T14:32:43;1.23;;;0.40;;
37221;SDS011;23119;51.842;-2.230;2023-07-20T14:35:14;0.57;;;0.30;;
37221;SDS011;23119;51.842;-2.230;2023-07-20T14:37:47;1.73;;;0.47;;
37221;SDS011;23119;51.842;-2.230;2023-07-20T14:40:15;1.90;;;0.40;;
37221;SDS011;23119;51.842;-2.230;2023-07-20T14:42:41;0.45;;;0.20;;
37221;SDS011;23119;51.842;-2.230;2023-07-20T14:45:09;1.15;;;0.30;;
37221;SDS011;23119;51.842;-2.230;2023-07-20T14:47:35;1.08;;;0.40;;
37221;SDS011;23119;51.842;-2.230;2023-07-20T14:50:01;0.38;;;0.20;;
37221;SDS011;23119;51.842;-2.230;2023-07-20T14:52:28;1.38;;;0.40;;
37221;SDS011;23119;51.842;-2.230;2023-07-20T14:54:54;1.13;;;0.32;;
37221;SDS011;23119;51.842;-2.230;2023-07-20T14:57:20;1.45;;;0.50;;
37221;SDS011;23119;51.842;-2.230;2023-07-20T14:59:54;3.55;;;0.60;;
37221;SDS011;23119;51.842;-2.230;2023-07-20T15:02:22;2.38;;;0.40;;
37221;SDS011;23119;51.842;-2.230;2023-07-20T15:04:48;1.38;;;0.30;;
37221;SDS011;23119;51.842;-2.230;2023-07-20T15:07:18;1.35;;;0.50;;
37221;SDS011;23119;51.842;-2.230;2023-07-20T15:09:48;0.63;;;0.40;;
37221;SDS011;23119;51.842;-2.230;2023-07-20T15:12:14;1.33;;;0.30;;
37221;SDS011;23119;51.842;-2.230;2023-07-20T15:14:42;0.70;;;0.30;;
37221;SDS011;23119;51.842;-2.230;2023-07-20T15:17:09;2.17;;;0.40;;
37221;SDS011;23119;51.842;-2.230;2023-07-20T15:19:35;1.67;;;0.30;;
37221;SDS011;23119;51.842;-2.230;2023-07-20T15:22:04;0.50;;;0.38;;
37221;SDS011;23119;51.842;-2.230;2023-07-20T15:24:31;0.85;;;0.40;;